الصفحة الرئيسية
METAR-TAF:

METAR-TAF

مطار :

بندر عباس, إيران

دائرة عرض: 27-13N, خط طول: 056-22E, ارتفاع: 10 متر

مراقبة الطقس الحالي

تاريخ ووقت الإصدار 46 دقيقة قبل الساعة 08:30UTC
ريح 12 عقدة من الجنوب/الجنوب الغربي
درجة الحرارة 38°درجة مئوية
الرطوبة 42%
ضغط 999 hPa
الرؤية: 6000 متر

METAR: OIKB 140830Z 21012KT 6000 NSC 38/23 Q0998 A2949

زمن: 13:46 (09:16 UTC)

توقعات

تاريخ ووقت الإصدار 3ساعات و 52 دقيقة قبل الساعة 05:24UTC
التوقعات صالحة من14 الساعة 06 UTC إلى 15 الساعة 12 UTC
ريح 7 عقدة من الجنوب/الجنوب الغربي
الرؤية: 5000 متر
غيوم قليلة على ارتفاع 3000 قدم
العجاج
مؤقت
من 14 الساعة 09 UTC إلى 14 الساعة 15 UTC
ريح 17 عقدة من الغرب/الجنوب الغربي
أصبح
من 14 الساعة 19 UTC إلى 14 الساعة 21 UTC
ريح 6 عقدة من الشمال/الشمال الشرقي
أصبح
من 15 الساعة 06 UTC إلى 15 الساعة 08 UTC
ريح 7 عقدة من الجنوب/الجنوب الغربي

TAF: OIKB 140524Z 1406/1512 21007KT 5000 HZ FEW030 TEMPO 1409/1415 24017KT BECMG 1419/1421 03006KT BECMG 1506/1508 21007KT

أرصاد الطقس والتوقعات من أكثر من 4000 مطار (تقارير الطقس للمطار METAR والتنبؤ بالطقس بالمطارTAF).

المحطات المتاحة هي النقط الصفراء والحمراء على الخريطة.

حرك المؤشر فوق النقطة لمعرفة اسم المحطة.

ثم انقر لمعرفة أرصاد وتوقعات الطقس.

لتغيير الخارطة: اضغط على الأزرار الخضراء مع رمز الصليب الأسود للتكبير. على الزر الأخضر مع شرطة للتصغير، أو على الأسهم الخضراء للخرائط المجاورة.


METAR-TAF: